Time;durP1;ratioP1;P1;durP2;ratioP2;P2;SDS_P1;SDS_P2;PMS_P1;PMS_P2;Temp;Humidity;BMP_temperature;BMP_pressure;BME280_temperature;BME280_humidity;BME280_pressure;Samples;Min_cycle;Max_cycle;Signal;HPM_P1;HPM_P2
2021/11/10 00:01:57;;;;;;;0.90;0.60;;;;;;;12.48;100.00;100290.31;5075883;28;20051;-57
2021/11/10 00:04:59;;;;;;;0.88;0.50;;;;;;;12.52;100.00;100288.88;5075172;28;20040;-57
2021/11/10 00:08:04;;;;;;;1.10;0.50;;;;;;;12.52;100.00;100285.31;5075405;28;20051;-57
2021/11/10 00:11:07;;;;;;;1.05;0.30;;;;;;;12.48;100.00;100276.34;5075294;28;20059;-57
2021/11/10 00:14:11;;;;;;;1.48;0.45;;;;;;;12.43;100.00;100280.56;5075317;28;20031;-57
2021/11/10 00:17:14;;;;;;;3.10;0.75;;;;;;;12.43;100.00;100288.22;5076397;28;20495;-57
2021/11/10 00:20:18;;;;;;;0.73;0.63;;;;;;;12.40;100.00;100280.78;5074533;28;20071;-57
2021/11/10 00:23:21;;;;;;;5.68;1.42;;;;;;;12.39;100.00;100284.84;5074867;28;20039;-57
2021/11/10 00:26:25;;;;;;;4.95;0.57;;;;;;;12.38;100.00;100280.47;5074998;28;20107;-57
2021/11/10 00:29:28;;;;;;;1.15;0.47;;;;;;;12.39;100.00;100270.88;5074774;28;20480;-57
2021/11/10 00:32:31;;;;;;;3.80;0.52;;;;;;;12.39;100.00;100268.06;5074678;28;20507;-56
2021/11/10 00:35:35;;;;;;;1.40;0.50;;;;;;;12.42;100.00;100281.84;5074062;28;20039;-57
2021/11/10 00:38:38;;;;;;;1.00;0.80;;;;;;;12.43;100.00;100277.78;5074639;28;20051;-57
2021/11/10 00:41:41;;;;;;;2.78;0.73;;;;;;;12.43;100.00;100288.22;5074250;28;20044;-58
2021/11/10 00:44:44;;;;;;;3.35;0.57;;;;;;;12.44;100.00;100290.50;5074109;28;20067;-57
2021/11/10 00:47:48;;;;;;;0.63;0.20;;;;;;;12.46;100.00;100288.00;5073670;28;20397;-59
2021/11/10 00:50:50;;;;;;;1.65;0.70;;;;;;;12.42;100.00;100281.84;5073976;28;20181;-60
2021/11/10 00:53:54;;;;;;;0.55;0.55;;;;;;;12.34;100.00;100288.28;5074083;28;20691;-59
2021/11/10 00:56:57;;;;;;;1.00;0.38;;;;;;;12.24;100.00;100287.56;5074721;28;20098;-60
2021/11/10 01:00:00;;;;;;;0.25;0.10;;;;;;;12.13;100.00;100287.31;5074062;28;20401;-59
2021/11/10 01:03:04;;;;;;;0.57;0.30;;;;;;;11.97;100.00;100290.53;5074273;28;20127;-59
2021/11/10 01:06:07;;;;;;;0.45;0.35;;;;;;;11.84;100.00;100295.59;5074169;28;20055;-59
2021/11/10 01:09:16;;;;;;;0.10;0.10;;;;;;;11.87;100.00;100305.78;5074402;28;20186;-59
2021/11/10 01:12:19;;;;;;;1.13;0.10;;;;;;;11.73;100.00;100303.69;5074253;28;20039;-58
2021/11/10 01:15:23;;;;;;;0.10;0.10;;;;;;;11.62;100.00;100304.19;5074283;28;20048;-59
2021/11/10 01:18:26;;;;;;;0.10;0.00;;;;;;;11.53;100.00;100309.78;5073943;28;20396;-58
2021/11/10 01:21:30;;;;;;;0.32;0.28;;;;;;;11.44;100.00;100315.41;5074280;28;20044;-57
2021/11/10 01:24:35;;;;;;;0.35;0.28;;;;;;;11.37;100.00;100312.94;5073642;28;20032;-57
2021/11/10 01:27:38;;;;;;;1.17;0.45;;;;;;;11.25;100.00;100313.91;5073627;28;20048;-59
2021/11/10 01:30:42;;;;;;;0.20;0.10;;;;;;;11.11;100.00;100322.94;5072912;28;20063;-59
2021/11/10 01:33:45;;;;;;;0.10;0.10;;;;;;;11.00;100.00;100325.44;5073102;28;20042;-58
2021/11/10 01:36:48;;;;;;;0.30;0.20;;;;;;;10.90;100.00;100326.69;5073804;28;20075;-50
2021/11/10 01:39:51;;;;;;;0.10;0.10;;;;;;;10.81;100.00;100329.47;5073711;28;20071;-50
2021/11/10 01:46:32;;;;;;;5.40;0.20;;;;;;;10.67;100.00;100322.53;5083665;28;20040;-50
2021/11/10 01:49:37;;;;;;;0.25;0.25;;;;;;;10.62;100.00;100321.13;5073118;28;20396;-51
2021/11/10 01:52:40;;;;;;;0.10;0.10;;;;;;;10.66;100.00;100324.53;5071652;28;20054;-51
2021/11/10 01:55:44;;;;;;;0.20;0.20;;;;;;;10.70;100.00;100318.78;5073462;28;20075;-51
2021/11/10 01:58:47;;;;;;;1.95;0.15;;;;;;;10.71;100.00;100327.94;5072790;28;20036;-51
2021/11/10 02:01:50;;;;;;;0.10;0.10;;;;;;;10.63;100.00;100319.13;5073271;28;20158;-51
2021/11/10 02:04:53;;;;;;;1.05;0.88;;;;;;;10.59;100.00;100330.41;5072570;28;20535;-51
2021/11/10 02:07:57;;;;;;;0.40;0.22;;;;;;;10.58;100.00;100337.22;5073400;28;20098;-51
2021/11/10 02:11:00;;;;;;;0.10;0.05;;;;;;;10.56;100.00;100336.16;5073267;28;20122;-50
2021/11/10 02:14:03;;;;;;;0.40;0.25;;;;;;;10.56;100.00;100336.94;5073049;28;20071;-50
2021/11/10 02:17:11;;;;;;;0.38;0.10;;;;;;;10.51;100.00;100340.31;5080690;28;20538;-50
2021/11/10 02:20:14;;;;;;;0.45;0.45;;;;;;;10.48;100.00;100340.47;5072936;28;20087;-50
2021/11/10 02:23:19;;;;;;;1.27;0.45;;;;;;;10.53;100.00;100348.19;5072720;28;20055;-50
2021/11/10 02:26:22;;;;;;;1.23;0.45;;;;;;;10.51;100.00;100340.31;5072818;28;20052;-51
2021/11/10 02:29:29;;;;;;;0.20;0.20;;;;;;;10.52;100.00;100347.44;5072451;28;20093;-50
2021/11/10 02:32:34;;;;;;;0.47;0.30;;;;;;;10.52;100.00;100341.09;5072712;28;20051;-50
2021/11/10 02:35:37;;;;;;;0.95;0.20;;;;;;;10.52;100.00;100344.66;5072533;28;20052;-50
2021/11/10 02:38:41;;;;;;;0.20;0.10;;;;;;;10.54;100.00;100342.19;5073366;28;20093;-51
2021/11/10 02:41:47;;;;;;;2.03;0.55;;;;;;;10.66;100.00;100346.81;5074121;28;20042;-51
2021/11/10 02:44:53;;;;;;;1.02;0.40;;;;;;;10.58;100.00;100350.38;5074513;28;20048;-50
2021/11/10 02:47:57;;;;;;;0.65;0.20;;;;;;;10.71;100.00;100347.44;5072846;28;20079;-50
2021/11/10 02:51:00;;;;;;;0.75;0.22;;;;;;;10.71;100.00;100348.22;5072555;28;20085;-50
2021/11/10 02:54:08;;;;;;;0.20;0.10;;;;;;;10.68;100.00;100349.13;5072362;28;20058;-50
2021/11/10 02:57:11;;;;;;;0.77;0.20;;;;;;;10.67;100.00;100347.59;5072568;28;20052;-50
2021/11/10 03:00:15;;;;;;;0.17;0.17;;;;;;;10.62;100.00;100353.78;5072448;28;20122;-50
2021/11/10 03:03:19;;;;;;;0.10;0.00;;;;;;;10.52;100.00;100355.81;5072418;28;20092;-50
2021/11/10 03:06:22;;;;;;;0.20;0.17;;;;;;;10.49;100.00;100365.06;5072254;28;20135;-50
2021/11/10 03:09:28;;;;;;;6.53;0.32;;;;;;;10.47;100.00;100370.31;5093149;28;20039;-51
2021/11/10 03:12:33;;;;;;;0.90;0.45;;;;;;;10.40;100.00;100367.84;5072924;28;20059;-51
2021/11/10 03:15:39;;;;;;;0.30;0.30;;;;;;;10.36;100.00;100364.44;5073830;28;20055;-50
2021/11/10 03:18:42;;;;;;;4.28;0.32;;;;;;;10.32;100.00;100372.16;5091544;28;20046;-51
2021/11/10 03:21:46;;;;;;;0.35;0.10;;;;;;;10.29;100.00;100370.28;5072279;28;20123;-52
2021/11/10 03:24:50;;;;;;;0.52;0.30;;;;;;;10.26;100.00;100364.88;5075583;28;20123;-51
2021/11/10 03:27:56;;;;;;;0.10;0.10;;;;;;;10.21;100.00;100366.25;5072055;28;20059;-51
2021/11/10 03:30:59;;;;;;;0.10;0.10;;;;;;;10.17;100.00;100371.19;5094214;27;20056;-52
2021/11/10 03:34:05;;;;;;;0.10;0.10;;;;;;;10.15;100.00;100372.91;5071915;28;20047;-51
2021/11/10 03:37:08;;;;;;;0.47;0.10;;;;;;;10.13;100.00;100370.56;5072166;28;20043;-51
2021/11/10 03:40:12;;;;;;;0.40;0.28;;;;;;;10.09;100.00;100383.06;5081076;28;20046;-51
2021/11/10 03:43:15;;;;;;;0.10;0.10;;;;;;;10.09;100.00;100381.03;5077817;28;20044;-51
2021/11/10 03:46:20;;;;;;;0.10;0.05;;;;;;;10.04;100.00;100378.88;5072214;28;20508;-51
2021/11/10 03:49:30;;;;;;;0.10;0.10;;;;;;;10.02;100.00;100375.78;5072080;28;20047;-52
2021/11/10 03:52:34;;;;;;;3.28;0.35;;;;;;;9.99;100.00;100376.69;5072209;28;20070;-51
2021/11/10 03:55:39;;;;;;;0.10;0.10;;;;;;;9.95;100.00;100370.47;5075951;28;20051;-51
2021/11/10 03:58:46;;;;;;;0.15;0.15;;;;;;;9.94;100.00;100382.84;5075642;28;20396;-51
2021/11/10 04:01:52;;;;;;;0.10;0.00;;;;;;;9.90;100.00;100385.75;5074798;28;20051;-51
2021/11/10 04:04:55;;;;;;;2.55;0.47;;;;;;;9.91;100.00;100389.31;5083809;28;20562;-51
2021/11/10 04:07:58;;;;;;;0.10;0.10;;;;;;;9.91;100.00;100380.97;5078019;28;20113;-52
2021/11/10 04:11:04;;;;;;;0.17;0.17;;;;;;;9.89;100.00;100378.66;5072649;28;20051;-51
2021/11/10 04:14:07;;;;;;;0.35;0.10;;;;;;;9.87;100.00;100383.13;5075052;28;20098;-51
2021/11/10 04:17:10;;;;;;;0.10;0.10;;;;;;;9.84;100.00;100393.16;5078459;28;20413;-51
2021/11/10 04:20:13;;;;;;;0.25;0.25;;;;;;;9.84;100.00;100395.16;5078191;28;20093;-51
2021/11/10 04:23:18;;;;;;;2.20;0.13;;;;;;;9.81;100.00;100396.84;5083543;28;20087;-51
2021/11/10 04:26:24;;;;;;;2.58;0.57;;;;;;;9.77;100.00;100403.78;5075106;28;20128;-51
2021/11/10 04:29:27;;;;;;;0.25;0.17;;;;;;;9.75;100.00;100411.81;5073713;28;20089;-51
2021/11/10 04:32:29;;;;;;;0.20;0.13;;;;;;;9.73;100.00;100415.06;5074702;28;20054;-51
2021/11/10 04:35:32;;;;;;;0.32;0.30;;;;;;;9.73;100.00;100414.28;5073793;28;20039;-51
2021/11/10 04:38:35;;;;;;;0.20;0.10;;;;;;;9.70;100.00;100415.19;5074654;28;20039;-52
2021/11/10 04:41:38;;;;;;;0.10;0.00;;;;;;;9.66;100.00;100403.41;5074272;28;20044;-51
2021/11/10 04:44:41;;;;;;;2.75;0.20;;;;;;;9.64;100.00;100405.88;5074475;28;20042;-51
2021/11/10 04:47:45;;;;;;;0.30;0.15;;;;;;;9.61;100.00;100404.81;5074264;28;20404;-51
2021/11/10 04:50:48;;;;;;;0.80;0.65;;;;;;;9.56;100.00;100399.81;5074423;28;20397;-51
2021/11/10 04:53:52;;;;;;;0.55;0.40;;;;;;;9.53;100.00;100411.84;5074013;28;20105;-52
2021/11/10 04:56:57;;;;;;;1.02;0.28;;;;;;;9.52;100.00;100415.09;5074399;28;20035;-51
2021/11/10 05:00:00;;;;;;;0.28;0.20;;;;;;;9.50;100.00;100415.56;5074086;28;20043;-51
2021/11/10 05:03:03;;;;;;;1.10;0.60;;;;;;;9.47;100.00;100416.44;5073976;28;20056;-51
2021/11/10 05:06:10;;;;;;;1.80;0.80;;;;;;;9.44;100.00;100419.38;5073460;28;20133;-50
2021/11/10 05:09:13;;;;;;;0.17;0.15;;;;;;;9.43;100.00;100417.81;5074480;28;20504;-50
2021/11/10 05:12:17;;;;;;;5.82;1.00;;;;;;;9.44;100.00;100409.00;5084443;28;20086;-51
2021/11/10 05:15:20;;;;;;;0.75;0.45;;;;;;;9.40;100.00;100402.06;5093200;28;20121;-50
2021/11/10 05:18:23;;;;;;;0.95;0.30;;;;;;;9.36;100.00;100401.38;5087255;28;20101;-51
2021/11/10 05:21:26;;;;;;;0.82;0.20;;;;;;;9.29;100.00;100390.56;5088625;28;20089;-51
2021/11/10 05:24:29;;;;;;;0.98;0.47;;;;;;;9.21;100.00;100383.69;5089126;28;20047;-50
2021/11/10 05:27:37;;;;;;;0.47;0.32;;;;;;;9.14;100.00;100399.41;5087829;28;20552;-51
2021/11/10 05:30:42;;;;;;;0.20;0.20;;;;;;;9.07;100.00;100394.09;5071911;28;20163;-50
2021/11/10 05:33:50;;;;;;;2.03;0.57;;;;;;;9.00;100.00;100402.72;5081587;28;20035;-50
2021/11/10 05:37:03;;;;;;;0.30;0.30;;;;;;;8.97;100.00;100397.25;5086538;28;20055;-51
2021/11/10 05:40:10;;;;;;;0.30;0.10;;;;;;;8.95;100.00;100410.84;5086450;28;20059;-51
2021/11/10 05:43:20;;;;;;;0.10;0.10;;;;;;;8.95;100.00;100417.16;5086080;28;20036;-50
2021/11/10 05:46:35;;;;;;;0.10;0.10;;;;;;;8.95;100.00;100406.06;5072312;28;20603;-50
2021/11/10 05:49:49;;;;;;;1.17;0.25;;;;;;;8.98;100.00;100409.94;5082100;28;20119;-50
2021/11/10 05:52:56;;;;;;;0.85;0.20;;;;;;;8.99;100.00;100406.69;5088919;28;20504;-50
2021/11/10 05:56:00;;;;;;;4.68;0.70;;;;;;;8.98;100.00;100410.72;5073233;28;20109;-50
2021/11/10 05:59:03;;;;;;;0.40;0.32;;;;;;;9.03;100.00;100418.47;5073103;28;20046;-50
2021/11/10 06:02:06;;;;;;;0.50;0.50;;;;;;;9.03;100.00;100417.72;5072648;28;20102;-50
2021/11/10 06:05:12;;;;;;;0.10;0.10;;;;;;;9.01;100.00;100415.34;5072299;28;20094;-50
2021/11/10 06:08:15;;;;;;;0.35;0.35;;;;;;;9.05;100.00;100416.00;5073348;28;20047;-50
2021/11/10 06:11:18;;;;;;;0.63;0.35;;;;;;;9.05;100.00;100415.25;5078592;28;20145;-50
2021/11/10 06:14:23;;;;;;;1.48;0.40;;;;;;;9.05;100.00;100423.59;5078845;28;20067;-50
2021/11/10 06:17:25;;;;;;;6.68;0.50;;;;;;;9.05;100.00;100432.66;5082765;28;20385;-50
2021/11/10 06:20:29;;;;;;;3.10;0.38;;;;;;;9.09;100.00;100430.56;5073054;28;20500;-50
2021/11/10 06:23:33;;;;;;;0.63;0.40;;;;;;;9.11;100.00;100433.66;5079685;28;20457;-50
2021/11/10 06:26:36;;;;;;;0.30;0.10;;;;;;;9.12;100.00;100437.97;5077091;28;20040;-50
2021/11/10 06:29:39;;;;;;;4.00;1.05;;;;;;;9.13;100.00;100438.75;5072509;28;20063;-49
2021/11/10 06:32:45;;;;;;;29.88;4.85;;;;;;;9.14;100.00;100435.53;5072460;28;20097;-49
2021/11/10 06:35:49;;;;;;;20.55;3.58;;;;;;;9.17;100.00;100436.63;5072671;28;20043;-50
2021/11/10 06:38:52;;;;;;;11.18;4.20;;;;;;;9.20;100.00;100434.97;5071542;28;20055;-50
2021/11/10 06:41:55;;;;;;;2.95;1.42;;;;;;;9.23;100.00;100443.16;5072211;28;20071;-50
2021/11/10 06:44:58;;;;;;;2.25;0.90;;;;;;;9.22;100.00;100458.28;5072105;28;20043;-50
2021/11/10 06:48:01;;;;;;;0.35;0.25;;;;;;;9.18;100.00;100456.88;5072385;28;20081;-50
2021/11/10 06:51:04;;;;;;;1.08;0.82;;;;;;;9.14;100.00;100460.53;5071518;28;20520;-50
2021/11/10 06:54:07;;;;;;;0.47;0.47;;;;;;;9.13;100.00;100461.78;5072253;28;20121;-50
2021/11/10 06:57:10;;;;;;;0.90;0.65;;;;;;;9.10;100.00;100471.00;5072342;28;20105;-50
2021/11/10 07:00:17;;;;;;;2.15;1.33;;;;;;;9.09;100.00;100472.25;5072380;28;20487;-50
2021/11/10 07:03:20;;;;;;;0.63;0.32;;;;;;;9.09;100.00;100465.91;5072158;28;20086;-50
2021/11/10 07:06:23;;;;;;;1.10;0.47;;;;;;;9.12;100.00;100460.22;5072599;28;20071;-50
2021/11/10 07:09:26;;;;;;;1.25;0.60;;;;;;;9.12;100.00;100460.22;5072441;28;20103;-50
2021/11/10 07:12:29;;;;;;;1.10;0.25;;;;;;;9.15;100.00;100475.22;5071174;28;20424;-51
2021/11/10 07:15:33;;;;;;;0.43;0.43;;;;;;;9.11;100.00;100472.56;5073648;28;20058;-50
2021/11/10 07:18:36;;;;;;;1.95;0.47;;;;;;;9.09;100.00;100472.25;5079586;28;20044;-50
2021/11/10 07:21:39;;;;;;;0.63;0.38;;;;;;;9.09;100.00;100475.03;5072313;28;20043;-50
2021/11/10 07:24:42;;;;;;;1.42;0.50;;;;;;;9.09;100.00;100477.03;5072027;28;20380;-50
2021/11/10 07:27:44;;;;;;;1.95;0.47;;;;;;;9.10;100.00;100482.13;5072251;28;20457;-51
2021/11/10 07:30:48;;;;;;;1.80;0.52;;;;;;;9.12;100.00;100485.22;5075551;28;20060;-50
2021/11/10 07:33:51;;;;;;;0.95;0.40;;;;;;;9.15;100.00;100484.31;5075803;28;20540;-50
2021/11/10 07:36:54;;;;;;;1.50;0.65;;;;;;;9.18;100.00;100491.75;5075895;28;20047;-50
2021/11/10 07:39:59;;;;;;;1.15;0.75;;;;;;;9.23;100.00;100500.72;5075803;28;20075;-50
2021/11/10 07:43:02;;;;;;;5.20;0.65;;;;;;;9.30;100.00;100508.81;5074867;28;20039;-50
2021/11/10 07:46:15;;;;;;;2.28;0.70;;;;;;;9.32;100.00;100523.03;5075521;28;20409;-50
2021/11/10 07:49:21;;;;;;;0.63;0.20;;;;;;;9.31;100.00;100527.06;5075585;28;20128;-50
2021/11/10 07:52:24;;;;;;;4.10;0.60;;;;;;;9.32;100.00;100528.59;5075957;28;20174;-50
2021/11/10 07:55:28;;;;;;;2.17;0.45;;;;;;;9.31;100.00;100538.19;5075745;28;20085;-50
2021/11/10 07:58:36;;;;;;;2.05;0.57;;;;;;;9.32;100.00;100534.16;5075617;28;20097;-50
2021/11/10 08:01:39;;;;;;;2.78;0.90;;;;;;;9.32;100.00;100540.50;5074478;28;20052;-50
2021/11/10 08:04:41;;;;;;;1.10;0.52;;;;;;;9.34;100.00;100543.59;5075404;28;20082;-50
2021/11/10 08:07:45;;;;;;;1.00;0.80;;;;;;;9.30;100.00;100542.97;5075328;28;20519;-50
2021/11/10 08:10:48;;;;;;;1.85;0.55;;;;;;;9.31;100.00;100546.53;5075155;28;20056;-50
2021/11/10 08:13:52;;;;;;;9.15;0.85;;;;;;;9.35;100.00;100544.41;5074727;28;20094;-50
2021/11/10 08:16:58;;;;;;;0.85;0.40;;;;;;;9.39;100.00;100553.38;5072834;28;20051;-50
2021/11/10 08:20:06;;;;;;;0.98;0.98;;;;;;;9.42;100.00;100555.28;5075141;28;20040;-49
2021/11/10 08:23:12;;;;;;;0.95;0.65;;;;;;;9.46;100.00;100567.03;5074721;28;20052;-50
2021/11/10 08:26:16;;;;;;;1.80;0.50;;;;;;;9.49;100.00;100572.47;5074921;28;20055;-50
2021/11/10 08:29:19;;;;;;;1.15;0.55;;;;;;;9.52;100.00;100573.56;5074573;28;20047;-50
2021/11/10 08:32:22;;;;;;;1.85;0.50;;;;;;;9.57;100.00;100570.22;5074647;28;20120;-50
2021/11/10 08:35:27;;;;;;;1.85;0.60;;;;;;;9.61;100.00;100573.66;5074966;28;20111;-50
2021/11/10 08:38:31;;;;;;;1.35;0.57;;;;;;;9.65;100.00;100575.06;5075180;28;20113;-49
2021/11/10 08:41:34;;;;;;;3.70;0.82;;;;;;;9.71;100.00;100578.03;5073883;28;20054;-49
2021/11/10 08:44:44;;;;;;;2.50;0.70;;;;;;;9.72;100.00;100580.38;5074573;28;20039;-50
2021/11/10 08:47:49;;;;;;;1.25;0.75;;;;;;;9.76;100.00;100580.25;5073519;28;20086;-49
2021/11/10 08:50:52;;;;;;;0.50;0.30;;;;;;;9.81;100.00;100579.69;5074502;28;20059;-49
2021/11/10 08:53:55;;;;;;;0.20;0.20;;;;;;;9.85;100.00;100591.47;5073722;28;20071;-51
2021/11/10 08:56:58;;;;;;;5.97;0.75;;;;;;;9.85;100.00;100599.81;5074023;28;20448;-49
2021/11/10 09:00:05;;;;;;;1.75;0.85;;;;;;;9.81;100.00;100588.03;5073815;28;22382;-50
2021/11/10 09:03:08;;;;;;;4.57;0.63;;;;;;;9.81;100.00;100588.78;5074334;28;20043;-50
2021/11/10 09:06:12;;;;;;;3.75;1.15;;;;;;;9.81;100.00;100593.59;5073949;28;20101;-49
2021/11/10 09:09:16;;;;;;;2.95;0.82;;;;;;;9.84;100.00;100603.81;5074122;28;20400;-50
2021/11/10 09:12:19;;;;;;;0.70;0.65;;;;;;;9.86;100.00;100599.34;5074153;28;20046;-50
2021/11/10 09:15:22;;;;;;;2.40;0.68;;;;;;;9.88;100.00;100605.22;5073607;28;20038;-50
2021/11/10 09:18:26;;;;;;;3.17;1.08;;;;;;;9.93;100.00;100603.88;5073842;28;20447;-49
2021/11/10 09:21:30;;;;;;;2.63;1.23;;;;;;;9.98;100.00;100611.66;5073424;28;20047;-53
2021/11/10 09:24:35;;;;;;;4.43;1.13;;;;;;;9.96;100.00;100614.09;5073428;28;20635;-50
2021/11/10 09:27:39;;;;;;;0.57;0.52;;;;;;;9.99;100.00;100617.97;5073440;28;20043;-50
2021/11/10 09:30:45;;;;;;;1.48;0.47;;;;;;;10.01;100.00;100612.72;5073730;28;20408;-51
2021/11/10 09:33:49;;;;;;;3.95;0.95;;;;;;;10.01;100.00;100624.63;5073079;28;20048;-51
2021/11/10 09:36:52;;;;;;;3.22;0.85;;;;;;;9.97;100.00;100628.78;5073464;28;20437;-51
2021/11/10 09:39:56;;;;;;;1.48;0.63;;;;;;;10.00;100.00;100634.22;5073238;28;20090;-50
2021/11/10 09:43:01;;;;;;;1.42;1.30;;;;;;;10.03;100.00;100638.88;5073727;28;20565;-48
2021/11/10 09:46:14;;;;;;;0.98;0.40;;;;;;;10.07;100.00;100638.75;5091342;28;20039;-48
2021/11/10 09:49:31;;;;;;;1.15;0.40;;;;;;;10.10;100.00;100646.97;5087264;28;20169;-49
2021/11/10 09:52:37;;;;;;;2.33;0.30;;;;;;;10.09;100.00;100642.63;5073059;28;20086;-49
2021/11/10 09:55:40;;;;;;;7.75;0.65;;;;;;;10.12;100.00;100647.31;5073318;28;20114;-51
2021/11/10 09:58:48;;;;;;;0.68;0.28;;;;;;;10.14;100.00;100649.63;5078247;28;20089;-50
2021/11/10 10:01:59;;;;;;;8.63;0.98;;;;;;;10.14;100.00;100644.84;5077377;28;20389;-51
2021/11/10 10:05:05;;;;;;;0.90;0.50;;;;;;;10.20;100.00;100643.03;5072968;28;20101;-51
2021/11/10 10:08:09;;;;;;;1.73;0.35;;;;;;;10.24;100.00;100646.50;5072513;28;20572;-51
2021/11/10 10:11:13;;;;;;;1.13;0.45;;;;;;;10.31;100.00;100649.00;5073236;28;20089;-50
2021/11/10 10:14:22;;;;;;;1.05;0.95;;;;;;;10.32;100.00;100650.56;5072519;28;20134;-50
2021/11/10 10:17:38;;;;;;;2.28;1.35;;;;;;;10.29;100.00;100651.47;5101876;27;20440;-51
2021/11/10 10:20:43;;;;;;;0.60;0.52;;;;;;;10.30;100.00;100647.44;5073127;28;20038;-50
2021/11/10 10:23:49;;;;;;;0.98;0.63;;;;;;;10.33;100.00;100640.19;5072235;28;20056;-50
2021/11/10 10:26:53;;;;;;;2.58;0.50;;;;;;;10.33;100.00;100634.63;5072564;28;20067;-51
2021/11/10 10:30:32;;;;;;;3.53;1.55;;;;;;;10.38;100.00;100642.38;5072228;28;20507;-50
2021/11/10 10:33:39;;;;;;;6.47;1.00;;;;;;;10.40;100.00;100632.34;5071996;28;20075;-50
2021/11/10 10:36:51;;;;;;;2.42;0.65;;;;;;;10.45;100.00;100633.75;5071681;28;20134;-50
2021/11/10 10:40:16;;;;;;;1.30;0.88;;;;;;;10.52;100.00;100637.06;5071723;28;20102;-49
2021/11/10 10:43:22;;;;;;;7.72;0.85;;;;;;;10.53;100.00;100638.59;5072646;28;20051;-50
2021/11/10 10:46:32;;;;;;;4.93;1.15;;;;;;;10.53;100.00;100640.63;5072425;28;20044;-50
2021/11/10 10:49:44;;;;;;;2.50;0.57;;;;;;;10.56;100.00;100639.72;5071961;28;20050;-50
2021/11/10 10:52:58;;;;;;;0.38;0.22;;;;;;;10.60;100.00;100638.34;5071777;28;20122;-51
2021/11/10 10:56:28;;;;;;;3.17;1.20;;;;;;;10.66;100.00;100630.94;5060034;28;20078;-50
2021/11/10 10:59:33;;;;;;;5.32;0.88;;;;;;;10.68;100.00;100636.03;5072434;28;20055;-50
2021/11/10 11:02:38;;;;;;;1.67;0.82;;;;;;;10.72;100.00;100641.50;5072010;28;20054;-51
2021/11/10 11:05:45;;;;;;;0.75;0.50;;;;;;;10.78;100.00;100636.88;5075880;28;20051;-50
2021/11/10 11:08:51;;;;;;;0.75;0.47;;;;;;;10.86;100.00;100624.19;5076323;28;20050;-51
2021/11/10 11:12:11;;;;;;;3.45;0.90;;;;;;;10.97;100.00;100621.78;5076191;28;20047;-50
2021/11/10 11:15:25;;;;;;;7.18;1.08;;;;;;;11.01;100.00;100616.81;5098210;28;20038;-50
2021/11/10 11:18:29;;;;;;;2.10;0.88;;;;;;;11.00;100.00;100618.06;5079174;28;20048;-50
2021/11/10 11:21:32;;;;;;;1.17;0.50;;;;;;;11.06;100.00;100624.59;5076036;28;20094;-50
2021/11/10 11:24:54;;;;;;;1.75;0.60;;;;;;;11.16;100.00;100615.78;5075845;28;20047;-51
2021/11/10 11:28:24;;;;;;;2.90;1.25;;;;;;;11.29;100.00;100626.81;5075069;28;20056;-50
2021/11/10 11:31:47;;;;;;;0.45;0.30;;;;;;;11.30;100.00;100622.78;5074898;28;20145;-50
2021/11/10 11:35:05;;;;;;;9.90;0.57;;;;;;;11.18;100.00;100620.91;5097334;27;20134;-50
2021/11/10 11:38:25;;;;;;;5.68;0.85;;;;;;;11.04;100.00;100615.91;5075526;28;20139;-50
2021/11/10 11:41:29;;;;;;;10.88;1.75;;;;;;;10.96;100.00;100621.00;5075551;28;20039;-50
2021/11/10 11:44:36;;;;;;;2.50;1.08;;;;;;;10.86;100.00;100622.19;5074823;28;20396;-49
2021/11/10 11:47:49;;;;;;;0.90;0.32;;;;;;;10.74;100.00;100613.97;5075625;28;20043;-50
2021/11/10 11:50:58;;;;;;;2.97;0.60;;;;;;;10.68;100.00;100617.31;5075498;28;20044;-50
2021/11/10 11:54:05;;;;;;;1.40;0.77;;;;;;;10.64;100.00;100624.28;5074580;28;20039;-50
2021/11/10 11:57:10;;;;;;;0.88;0.28;;;;;;;10.64;100.00;100622.25;5075167;28;20129;-50
2021/11/10 12:00:18;;;;;;;2.92;1.10;;;;;;;10.67;100.00;100615.00;5075133;28;20086;-50
2021/11/10 12:03:27;;;;;;;5.00;0.70;;;;;;;10.73;100.00;100610.38;5075614;28;20542;-51
2021/11/10 12:06:53;;;;;;;9.50;2.08;;;;;;;10.92;100.00;100611.22;5076903;28;20560;-50
2021/11/10 12:10:33;;;;;;;2.83;0.55;;;;;;;11.13;100.00;100613.16;5075201;28;20043;-50
2021/11/10 12:13:36;;;;;;;7.25;1.30;;;;;;;11.22;100.00;100593.63;5075014;28;20052;-50
2021/11/10 12:16:50;;;;;;;1.17;0.28;;;;;;;11.32;100.00;100600.81;5085985;28;20070;-50
2021/11/10 12:20:03;;;;;;;1.15;0.50;;;;;;;11.42;100.00;100596.78;5074782;28;20082;-50
2021/11/10 12:23:54;;;;;;;3.30;0.95;;;;;;;11.53;100.00;100597.09;5079385;28;20185;-49
2021/11/10 12:27:42;;;;;;;0.45;0.38;;;;;;;11.64;100.00;100594.63;5074694;28;20153;-50
2021/11/10 12:31:11;;;;;;;2.88;1.13;;;;;;;11.62;100.00;100583.16;5073694;28;20104;-49
2021/11/10 12:35:01;;;;;;;5.07;1.00;;;;;;;11.57;100.00;100580.19;5074382;28;20157;-50
2021/11/10 12:38:21;;;;;;;1.02;0.30;;;;;;;11.62;100.00;100577.56;5074516;28;20059;-50
2021/11/10 12:41:25;;;;;;;2.60;1.67;;;;;;;11.66;100.00;100571.84;5074163;28;20170;-50
2021/11/10 12:44:43;;;;;;;1.15;0.45;;;;;;;11.67;100.00;100574.22;5085879;28;20450;-50
2021/11/10 12:48:00;;;;;;;1.05;0.65;;;;;;;11.71;100.00;100572.03;5087636;28;20144;-49
2021/11/10 12:51:51;;;;;;;2.97;0.82;;;;;;;11.69;100.00;100573.72;5074262;28;20500;-50
2021/11/10 12:55:15;;;;;;;0.68;0.20;;;;;;;11.72;100.00;100570.78;5074534;28;20126;-50
2021/11/10 12:58:25;;;;;;;7.85;0.75;;;;;;;11.73;100.00;100565.97;5074139;28;20102;-49
2021/11/10 13:01:58;;;;;;;1.77;1.38;;;;;;;11.83;100.00;100554.34;5074496;28;20102;-50
2021/11/10 13:05:10;;;;;;;1.52;0.68;;;;;;;11.90;100.00;100551.22;5073981;28;20083;-50
2021/11/10 13:09:01;;;;;;;6.68;1.38;;;;;;;11.85;100.00;100551.06;5093224;28;20123;-49
2021/11/10 13:13:02;;;;;;;1.83;0.75;;;;;;;11.76;100.00;100545.53;5074228;28;20043;-50
2021/11/10 13:16:07;;;;;;;2.63;0.50;;;;;;;11.71;100.00;100541.34;5079738;28;20097;-50
2021/11/10 13:19:33;;;;;;;1.40;0.75;;;;;;;11.69;100.00;100538.25;5077706;28;20565;-50
2021/11/10 13:22:43;;;;;;;3.42;1.13;;;;;;;11.67;100.00;100549.09;5086063;28;20118;-52
2021/11/10 13:26:48;;;;;;;1.98;0.73;;;;;;;11.60;100.00;100546.59;5072792;28;20448;-53
2021/11/10 13:30:15;;;;;;;5.68;1.05;;;;;;;11.49;100.00;100540.69;5068287;28;20051;-52
2021/11/10 13:33:42;;;;;;;9.27;2.00;;;;;;;11.39;100.00;100536.38;5073097;28;20098;-60
2021/11/10 13:36:45;;;;;;;1.20;1.02;;;;;;;11.28;100.00;100536.06;5079769;28;20047;-61
2021/11/10 13:39:58;;;;;;;11.65;2.08;;;;;;;11.15;100.00;100532.63;5073463;28;20121;-61
2021/11/10 13:43:02;;;;;;;5.20;1.88;;;;;;;11.04;100.00;100526.72;5072437;28;20110;-61
2021/11/10 13:46:09;;;;;;;6.57;1.58;;;;;;;10.98;100.00;100528.56;5073498;28;20051;-62
2021/11/10 13:49:29;;;;;;;3.92;2.45;;;;;;;10.98;100.00;100529.34;5064630;28;20121;-62
2021/11/10 13:52:41;;;;;;;2.97;2.13;;;;;;;10.99;100.00;100538.47;5048744;28;20123;-62
2021/11/10 13:55:54;;;;;;;3.42;0.82;;;;;;;10.99;100.00;100535.69;5044896;28;20179;-61
2021/11/10 13:59:23;;;;;;;2.63;1.58;;;;;;;11.03;100.00;100544.66;5047299;28;20055;-59
2021/11/10 14:03:55;;;;;;;;;;;;;;;;;;;;;
2021/11/10 14:12:54;;;;;;;5.07;2.05;;;;;;;11.07;100.00;100548.09;5050288;28;20737;-51
2021/11/10 14:15:58;;;;;;;4.25;0.93;;;;;;;11.07;100.00;100548.09;5062414;28;20165;-58
2021/11/10 14:19:03;;;;;;;2.10;1.13;;;;;;;11.04;100.00;100532.31;5073286;28;20103;-57
2021/11/10 14:22:06;;;;;;;3.45;1.65;;;;;;;11.01;100.00;100538.78;5077165;28;20388;-58
2021/11/10 14:25:21;;;;;;;3.58;1.63;;;;;;;10.95;100.00;100540.63;5072680;28;20043;-58
2021/11/10 14:28:35;;;;;;;4.15;1.65;;;;;;;10.93;100.00;100535.53;5051204;28;20135;-58
2021/11/10 14:31:51;;;;;;;3.97;1.75;;;;;;;10.86;100.00;100535.81;5072448;28;20144;-61
2021/11/10 14:35:01;;;;;;;4.05;2.08;;;;;;;10.80;100.00;100536.88;5071770;28;20086;-62
2021/11/10 14:38:50;;;;;;;3.85;1.35;;;;;;;10.75;100.00;100537.47;5072225;28;20102;-63
2021/11/10 14:42:15;;;;;;;2.10;0.68;;;;;;;10.68;100.00;100530.97;5080296;28;20047;-56